sensor_id;sensor_type;location;lat;lon;timestamp;P1;durP1;ratioP1;P2;durP2;ratioP2
24279;SDS011;12395;42.808;23.408;2023-06-14T00:01:45;9.15;;;4.60;;
24279;SDS011;12395;42.808;23.408;2023-06-14T00:04:12;8.90;;;4.45;;
24279;SDS011;12395;42.808;23.408;2023-06-14T00:06:38;8.43;;;5.00;;
24279;SDS011;12395;42.808;23.408;2023-06-14T00:09:04;9.70;;;5.07;;
24279;SDS011;12395;42.808;23.408;2023-06-14T00:11:33;10.65;;;4.68;;
24279;SDS011;12395;42.808;23.408;2023-06-14T00:13:58;7.68;;;4.25;;
24279;SDS011;12395;42.808;23.408;2023-06-14T00:16:24;8.20;;;4.28;;
24279;SDS011;12395;42.808;23.408;2023-06-14T00:18:49;6.22;;;3.88;;
24279;SDS011;12395;42.808;23.408;2023-06-14T00:21:16;7.55;;;3.40;;
24279;SDS011;12395;42.808;23.408;2023-06-14T00:23:42;7.38;;;3.35;;
24279;SDS011;12395;42.808;23.408;2023-06-14T00:26:08;7.13;;;3.42;;
24279;SDS011;12395;42.808;23.408;2023-06-14T00:28:33;5.18;;;3.40;;
24279;SDS011;12395;42.808;23.408;2023-06-14T00:30:58;8.55;;;3.55;;
24279;SDS011;12395;42.808;23.408;2023-06-14T00:33:24;7.32;;;3.60;;
24279;SDS011;12395;42.808;23.408;2023-06-14T00:35:50;7.72;;;4.03;;
24279;SDS011;12395;42.808;23.408;2023-06-14T00:38:15;6.18;;;3.80;;
24279;SDS011;12395;42.808;23.408;2023-06-14T00:40:40;6.93;;;3.72;;
24279;SDS011;12395;42.808;23.408;2023-06-14T00:43:06;7.25;;;4.13;;
24279;SDS011;12395;42.808;23.408;2023-06-14T00:45:31;7.55;;;3.92;;
24279;SDS011;12395;42.808;23.408;2023-06-14T00:48:00;7.43;;;3.83;;
24279;SDS011;12395;42.808;23.408;2023-06-14T00:50:27;9.65;;;3.63;;
24279;SDS011;12395;42.808;23.408;2023-06-14T00:52:54;5.68;;;3.75;;
24279;SDS011;12395;42.808;23.408;2023-06-14T00:55:20;5.97;;;3.33;;
24279;SDS011;12395;42.808;23.408;2023-06-14T00:57:46;6.25;;;2.90;;
24279;SDS011;12395;42.808;23.408;2023-06-14T01:00:12;6.70;;;3.17;;
24279;SDS011;12395;42.808;23.408;2023-06-14T01:02:38;4.90;;;3.00;;
24279;SDS011;12395;42.808;23.408;2023-06-14T01:05:04;5.72;;;3.00;;
24279;SDS011;12395;42.808;23.408;2023-06-14T01:13:23;5.45;;;3.05;;
24279;SDS011;12395;42.808;23.408;2023-06-14T01:15:51;4.38;;;2.72;;
24279;SDS011;12395;42.808;23.408;2023-06-14T01:18:17;6.00;;;2.50;;
24279;SDS011;12395;42.808;23.408;2023-06-14T01:20:46;3.83;;;2.50;;
24279;SDS011;12395;42.808;23.408;2023-06-14T01:23:16;4.63;;;2.50;;
24279;SDS011;12395;42.808;23.408;2023-06-14T01:25:42;4.15;;;2.35;;
24279;SDS011;12395;42.808;23.408;2023-06-14T01:28:09;5.50;;;2.40;;
24279;SDS011;12395;42.808;23.408;2023-06-14T01:30:40;4.18;;;2.35;;
24279;SDS011;12395;42.808;23.408;2023-06-14T01:33:16;3.35;;;2.30;;
24279;SDS011;12395;42.808;23.408;2023-06-14T01:35:45;5.40;;;2.53;;
24279;SDS011;12395;42.808;23.408;2023-06-14T01:38:15;3.40;;;2.38;;
24279;SDS011;12395;42.808;23.408;2023-06-14T01:40:44;5.57;;;2.63;;
24279;SDS011;12395;42.808;23.408;2023-06-14T01:43:10;5.85;;;2.55;;
24279;SDS011;12395;42.808;23.408;2023-06-14T01:45:38;5.70;;;2.85;;
24279;SDS011;12395;42.808;23.408;2023-06-14T01:48:07;4.88;;;2.60;;
24279;SDS011;12395;42.808;23.408;2023-06-14T01:50:32;5.50;;;2.45;;
24279;SDS011;12395;42.808;23.408;2023-06-14T01:52:58;4.07;;;2.83;;
24279;SDS011;12395;42.808;23.408;2023-06-14T01:55:23;5.72;;;2.58;;
24279;SDS011;12395;42.808;23.408;2023-06-14T01:57:54;5.72;;;2.67;;
24279;SDS011;12395;42.808;23.408;2023-06-14T02:00:19;3.35;;;2.10;;
24279;SDS011;12395;42.808;23.408;2023-06-14T02:02:46;5.90;;;2.45;;
24279;SDS011;12395;42.808;23.408;2023-06-14T02:05:12;9.00;;;2.70;;
24279;SDS011;12395;42.808;23.408;2023-06-14T02:07:37;3.80;;;2.20;;
24279;SDS011;12395;42.808;23.408;2023-06-14T02:10:03;5.38;;;2.40;;
24279;SDS011;12395;42.808;23.408;2023-06-14T02:12:29;7.17;;;2.73;;
24279;SDS011;12395;42.808;23.408;2023-06-14T02:14:54;4.25;;;2.53;;
24279;SDS011;12395;42.808;23.408;2023-06-14T02:17:21;5.18;;;2.30;;
24279;SDS011;12395;42.808;23.408;2023-06-14T02:19:46;5.18;;;2.45;;
24279;SDS011;12395;42.808;23.408;2023-06-14T02:22:12;3.42;;;2.30;;
24279;SDS011;12395;42.808;23.408;2023-06-14T02:27:05;3.65;;;2.10;;
24279;SDS011;12395;42.808;23.408;2023-06-14T02:29:31;5.70;;;2.70;;
24279;SDS011;12395;42.808;23.408;2023-06-14T02:31:57;4.95;;;2.30;;
24279;SDS011;12395;42.808;23.408;2023-06-14T02:34:22;5.25;;;2.13;;
24279;SDS011;12395;42.808;23.408;2023-06-14T02:36:48;6.65;;;2.50;;
24279;SDS011;12395;42.808;23.408;2023-06-14T02:39:13;5.03;;;2.20;;
24279;SDS011;12395;42.808;23.408;2023-06-14T02:41:39;5.88;;;2.50;;
24279;SDS011;12395;42.808;23.408;2023-06-14T02:44:05;3.63;;;2.30;;
24279;SDS011;12395;42.808;23.408;2023-06-14T02:46:31;3.42;;;2.22;;
24279;SDS011;12395;42.808;23.408;2023-06-14T02:48:57;3.97;;;2.40;;
24279;SDS011;12395;42.808;23.408;2023-06-14T02:51:22;5.07;;;2.60;;
24279;SDS011;12395;42.808;23.408;2023-06-14T02:53:47;4.35;;;2.60;;
24279;SDS011;12395;42.808;23.408;2023-06-14T02:56:13;6.20;;;2.97;;
24279;SDS011;12395;42.808;23.408;2023-06-14T02:58:39;5.47;;;2.92;;
24279;SDS011;12395;42.808;23.408;2023-06-14T03:01:05;6.47;;;3.50;;
24279;SDS011;12395;42.808;23.408;2023-06-14T03:03:32;7.10;;;3.90;;
24279;SDS011;12395;42.808;23.408;2023-06-14T03:05:58;6.97;;;3.47;;
24279;SDS011;12395;42.808;23.408;2023-06-14T03:08:29;7.18;;;3.00;;
24279;SDS011;12395;42.808;23.408;2023-06-14T03:10:55;4.18;;;2.38;;
24279;SDS011;12395;42.808;23.408;2023-06-14T03:13:21;4.80;;;2.70;;
24279;SDS011;12395;42.808;23.408;2023-06-14T03:15:47;6.05;;;2.75;;
24279;SDS011;12395;42.808;23.408;2023-06-14T03:18:15;4.68;;;2.80;;
24279;SDS011;12395;42.808;23.408;2023-06-14T03:20:41;3.58;;;2.70;;
24279;SDS011;12395;42.808;23.408;2023-06-14T03:23:08;6.45;;;2.72;;
24279;SDS011;12395;42.808;23.408;2023-06-14T03:25:33;11.25;;;5.55;;
24279;SDS011;12395;42.808;23.408;2023-06-14T03:28:00;11.32;;;6.13;;
24279;SDS011;12395;42.808;23.408;2023-06-14T03:30:27;12.35;;;6.63;;
24279;SDS011;12395;42.808;23.408;2023-06-14T03:32:52;10.68;;;5.45;;
24279;SDS011;12395;42.808;23.408;2023-06-14T03:35:20;7.32;;;3.85;;
24279;SDS011;12395;42.808;23.408;2023-06-14T03:37:46;7.05;;;3.60;;
24279;SDS011;12395;42.808;23.408;2023-06-14T03:40:12;6.45;;;3.13;;
24279;SDS011;12395;42.808;23.408;2023-06-14T03:42:40;5.95;;;2.90;;
24279;SDS011;12395;42.808;23.408;2023-06-14T03:45:05;8.27;;;3.30;;
24279;SDS011;12395;42.808;23.408;2023-06-14T03:47:31;10.57;;;3.67;;
24279;SDS011;12395;42.808;23.408;2023-06-14T03:49:57;6.72;;;3.60;;
24279;SDS011;12395;42.808;23.408;2023-06-14T03:52:23;8.02;;;4.28;;
24279;SDS011;12395;42.808;23.408;2023-06-14T03:54:48;9.13;;;3.78;;
24279;SDS011;12395;42.808;23.408;2023-06-14T03:57:14;8.88;;;4.38;;
24279;SDS011;12395;42.808;23.408;2023-06-14T03:59:40;9.02;;;3.95;;
24279;SDS011;12395;42.808;23.408;2023-06-14T04:02:06;7.55;;;4.30;;
24279;SDS011;12395;42.808;23.408;2023-06-14T04:04:32;7.40;;;4.30;;
24279;SDS011;12395;42.808;23.408;2023-06-14T04:06:57;9.05;;;4.28;;
24279;SDS011;12395;42.808;23.408;2023-06-14T04:09:24;9.80;;;4.80;;
24279;SDS011;12395;42.808;23.408;2023-06-14T04:11:50;10.20;;;4.93;;
24279;SDS011;12395;42.808;23.408;2023-06-14T04:14:17;8.75;;;4.90;;
24279;SDS011;12395;42.808;23.408;2023-06-14T04:16:44;11.63;;;5.88;;
24279;SDS011;12395;42.808;23.408;2023-06-14T04:19:10;11.63;;;5.65;;
24279;SDS011;12395;42.808;23.408;2023-06-14T04:21:35;11.15;;;5.22;;
24279;SDS011;12395;42.808;23.408;2023-06-14T04:24:01;14.15;;;6.55;;
24279;SDS011;12395;42.808;23.408;2023-06-14T04:26:27;13.85;;;7.22;;
24279;SDS011;12395;42.808;23.408;2023-06-14T04:28:58;12.70;;;7.00;;
24279;SDS011;12395;42.808;23.408;2023-06-14T04:31:30;14.63;;;7.68;;
24279;SDS011;12395;42.808;23.408;2023-06-14T04:33:58;14.15;;;7.22;;
24279;SDS011;12395;42.808;23.408;2023-06-14T04:36:24;12.50;;;6.72;;
24279;SDS011;12395;42.808;23.408;2023-06-14T04:38:51;17.02;;;7.80;;
24279;SDS011;12395;42.808;23.408;2023-06-14T04:43:47;16.83;;;8.32;;
24279;SDS011;12395;42.808;23.408;2023-06-14T04:46:14;14.60;;;7.55;;
24279;SDS011;12395;42.808;23.408;2023-06-14T04:48:39;13.35;;;7.32;;
24279;SDS011;12395;42.808;23.408;2023-06-14T04:51:06;13.68;;;7.80;;
24279;SDS011;12395;42.808;23.408;2023-06-14T04:53:32;15.80;;;9.15;;
24279;SDS011;12395;42.808;23.408;2023-06-14T04:55:59;19.13;;;10.38;;
24279;SDS011;12395;42.808;23.408;2023-06-14T04:58:26;20.92;;;10.30;;
24279;SDS011;12395;42.808;23.408;2023-06-14T05:00:52;20.73;;;10.90;;
24279;SDS011;12395;42.808;23.408;2023-06-14T05:03:18;21.27;;;10.90;;
24279;SDS011;12395;42.808;23.408;2023-06-14T05:05:46;23.85;;;10.98;;
24279;SDS011;12395;42.808;23.408;2023-06-14T05:08:11;20.70;;;10.20;;
24279;SDS011;12395;42.808;23.408;2023-06-14T05:10:36;18.88;;;10.18;;
24279;SDS011;12395;42.808;23.408;2023-06-14T05:13:02;19.92;;;11.00;;
24279;SDS011;12395;42.808;23.408;2023-06-14T05:15:28;20.48;;;10.25;;
24279;SDS011;12395;42.808;23.408;2023-06-14T05:17:54;19.77;;;10.98;;
24279;SDS011;12395;42.808;23.408;2023-06-14T05:20:24;24.08;;;10.90;;
24279;SDS011;12395;42.808;23.408;2023-06-14T05:22:53;21.50;;;10.45;;
24279;SDS011;12395;42.808;23.408;2023-06-14T05:25:19;19.88;;;10.27;;
24279;SDS011;12395;42.808;23.408;2023-06-14T05:27:45;20.63;;;10.83;;
24279;SDS011;12395;42.808;23.408;2023-06-14T05:30:11;20.65;;;10.55;;
24279;SDS011;12395;42.808;23.408;2023-06-14T05:32:38;19.47;;;10.13;;
24279;SDS011;12395;42.808;23.408;2023-06-14T05:35:03;19.77;;;10.35;;
24279;SDS011;12395;42.808;23.408;2023-06-14T05:37:29;21.60;;;10.80;;
24279;SDS011;12395;42.808;23.408;2023-06-14T05:39:55;19.60;;;10.65;;
24279;SDS011;12395;42.808;23.408;2023-06-14T05:42:21;19.77;;;10.68;;
24279;SDS011;12395;42.808;23.408;2023-06-14T05:44:46;20.63;;;10.98;;
24279;SDS011;12395;42.808;23.408;2023-06-14T05:47:12;21.20;;;11.15;;
24279;SDS011;12395;42.808;23.408;2023-06-14T05:49:37;24.42;;;12.13;;
24279;SDS011;12395;42.808;23.408;2023-06-14T05:52:03;22.83;;;11.85;;
24279;SDS011;12395;42.808;23.408;2023-06-14T05:54:29;24.48;;;12.30;;
24279;SDS011;12395;42.808;23.408;2023-06-14T05:56:54;24.52;;;11.57;;
24279;SDS011;12395;42.808;23.408;2023-06-14T05:59:19;21.88;;;11.90;;
24279;SDS011;12395;42.808;23.408;2023-06-14T06:01:45;20.75;;;11.88;;
24279;SDS011;12395;42.808;23.408;2023-06-14T06:04:11;22.40;;;12.25;;
24279;SDS011;12395;42.808;23.408;2023-06-14T06:06:36;24.85;;;12.27;;
24279;SDS011;12395;42.808;23.408;2023-06-14T06:09:02;22.30;;;12.30;;
24279;SDS011;12395;42.808;23.408;2023-06-14T06:11:27;21.60;;;12.00;;
24279;SDS011;12395;42.808;23.408;2023-06-14T06:13:53;20.77;;;10.63;;
24279;SDS011;12395;42.808;23.408;2023-06-14T06:16:18;20.40;;;11.35;;
24279;SDS011;12395;42.808;23.408;2023-06-14T06:18:44;21.83;;;11.07;;
24279;SDS011;12395;42.808;23.408;2023-06-14T06:21:09;19.55;;;10.65;;
24279;SDS011;12395;42.808;23.408;2023-06-14T06:23:34;19.90;;;10.55;;
24279;SDS011;12395;42.808;23.408;2023-06-14T06:26:00;21.90;;;11.65;;
24279;SDS011;12395;42.808;23.408;2023-06-14T06:28:26;19.00;;;11.07;;
24279;SDS011;12395;42.808;23.408;2023-06-14T06:30:51;20.13;;;11.07;;
24279;SDS011;12395;42.808;23.408;2023-06-14T06:33:17;20.23;;;10.63;;
24279;SDS011;12395;42.808;23.408;2023-06-14T06:35:42;20.83;;;11.57;;
24279;SDS011;12395;42.808;23.408;2023-06-14T06:38:08;18.05;;;10.48;;
24279;SDS011;12395;42.808;23.408;2023-06-14T06:40:35;19.65;;;10.48;;
24279;SDS011;12395;42.808;23.408;2023-06-14T06:43:01;22.15;;;11.27;;
24279;SDS011;12395;42.808;23.408;2023-06-14T06:45:27;21.33;;;10.85;;
24279;SDS011;12395;42.808;23.408;2023-06-14T06:47:53;19.55;;;10.98;;
24279;SDS011;12395;42.808;23.408;2023-06-14T06:50:18;20.23;;;11.43;;
24279;SDS011;12395;42.808;23.408;2023-06-14T06:52:44;19.00;;;11.10;;
24279;SDS011;12395;42.808;23.408;2023-06-14T06:55:10;18.00;;;10.63;;
24279;SDS011;12395;42.808;23.408;2023-06-14T06:57:36;18.02;;;10.48;;
24279;SDS011;12395;42.808;23.408;2023-06-14T07:00:01;21.40;;;10.65;;
24279;SDS011;12395;42.808;23.408;2023-06-14T07:02:29;18.08;;;10.32;;
24279;SDS011;12395;42.808;23.408;2023-06-14T07:04:56;18.92;;;11.32;;
24279;SDS011;12395;42.808;23.408;2023-06-14T07:07:21;18.35;;;11.30;;
24279;SDS011;12395;42.808;23.408;2023-06-14T07:09:47;17.45;;;10.27;;
24279;SDS011;12395;42.808;23.408;2023-06-14T07:12:13;17.15;;;10.77;;
24279;SDS011;12395;42.808;23.408;2023-06-14T07:14:38;18.48;;;11.02;;
24279;SDS011;12395;42.808;23.408;2023-06-14T07:17:03;18.90;;;11.00;;
24279;SDS011;12395;42.808;23.408;2023-06-14T07:19:30;17.30;;;10.35;;
24279;SDS011;12395;42.808;23.408;2023-06-14T07:21:55;17.17;;;10.50;;
24279;SDS011;12395;42.808;23.408;2023-06-14T07:24:21;16.77;;;10.30;;
24279;SDS011;12395;42.808;23.408;2023-06-14T07:26:46;16.83;;;10.07;;
24279;SDS011;12395;42.808;23.408;2023-06-14T07:29:13;15.20;;;10.07;;
24279;SDS011;12395;42.808;23.408;2023-06-14T07:31:38;16.98;;;10.25;;
24279;SDS011;12395;42.808;23.408;2023-06-14T07:34:03;15.82;;;9.50;;
24279;SDS011;12395;42.808;23.408;2023-06-14T07:36:29;16.75;;;10.15;;
24279;SDS011;12395;42.808;23.408;2023-06-14T07:38:55;15.05;;;9.68;;
24279;SDS011;12395;42.808;23.408;2023-06-14T07:41:20;18.40;;;10.60;;
24279;SDS011;12395;42.808;23.408;2023-06-14T07:43:46;14.60;;;9.25;;
24279;SDS011;12395;42.808;23.408;2023-06-14T07:46:11;14.75;;;8.50;;
24279;SDS011;12395;42.808;23.408;2023-06-14T07:48:37;13.45;;;8.82;;
24279;SDS011;12395;42.808;23.408;2023-06-14T07:51:02;13.45;;;8.73;;
24279;SDS011;12395;42.808;23.408;2023-06-14T07:53:28;12.13;;;8.00;;
24279;SDS011;12395;42.808;23.408;2023-06-14T07:55:55;13.00;;;8.40;;
24279;SDS011;12395;42.808;23.408;2023-06-14T07:58:21;12.60;;;8.60;;
24279;SDS011;12395;42.808;23.408;2023-06-14T08:00:46;15.38;;;8.90;;
24279;SDS011;12395;42.808;23.408;2023-06-14T08:03:12;14.20;;;8.73;;
24279;SDS011;12395;42.808;23.408;2023-06-14T08:05:37;11.40;;;7.50;;
24279;SDS011;12395;42.808;23.408;2023-06-14T08:08:03;12.65;;;7.57;;
24279;SDS011;12395;42.808;23.408;2023-06-14T08:10:28;12.20;;;7.32;;
24279;SDS011;12395;42.808;23.408;2023-06-14T08:12:54;13.77;;;8.98;;
24279;SDS011;12395;42.808;23.408;2023-06-14T08:15:19;17.48;;;10.75;;
24279;SDS011;12395;42.808;23.408;2023-06-14T08:17:45;16.30;;;10.43;;
24279;SDS011;12395;42.808;23.408;2023-06-14T08:20:11;14.60;;;9.68;;
24279;SDS011;12395;42.808;23.408;2023-06-14T08:22:38;15.50;;;9.88;;
24279;SDS011;12395;42.808;23.408;2023-06-14T08:25:04;12.57;;;8.40;;
24279;SDS011;12395;42.808;23.408;2023-06-14T08:27:30;12.95;;;8.75;;
24279;SDS011;12395;42.808;23.408;2023-06-14T08:29:55;12.75;;;7.97;;
24279;SDS011;12395;42.808;23.408;2023-06-14T08:32:21;12.27;;;7.72;;
24279;SDS011;12395;42.808;23.408;2023-06-14T08:34:47;11.88;;;7.68;;
24279;SDS011;12395;42.808;23.408;2023-06-14T08:37:12;11.77;;;6.65;;
24279;SDS011;12395;42.808;23.408;2023-06-14T08:39:37;11.10;;;7.15;;
24279;SDS011;12395;42.808;23.408;2023-06-14T08:42:03;10.45;;;6.80;;
24279;SDS011;12395;42.808;23.408;2023-06-14T08:44:31;10.90;;;6.85;;
24279;SDS011;12395;42.808;23.408;2023-06-14T08:46:57;9.18;;;6.70;;
24279;SDS011;12395;42.808;23.408;2023-06-14T08:49:25;10.30;;;6.43;;
24279;SDS011;12395;42.808;23.408;2023-06-14T08:51:53;10.15;;;6.15;;
24279;SDS011;12395;42.808;23.408;2023-06-14T08:54:23;8.68;;;5.65;;
24279;SDS011;12395;42.808;23.408;2023-06-14T08:56:52;7.97;;;5.55;;
24279;SDS011;12395;42.808;23.408;2023-06-14T09:01:46;8.45;;;5.57;;
24279;SDS011;12395;42.808;23.408;2023-06-14T09:04:13;7.78;;;5.07;;
24279;SDS011;12395;42.808;23.408;2023-06-14T09:06:38;8.45;;;5.47;;
24279;SDS011;12395;42.808;23.408;2023-06-14T09:09:03;9.05;;;6.00;;
24279;SDS011;12395;42.808;23.408;2023-06-14T09:11:29;7.07;;;4.90;;
24279;SDS011;12395;42.808;23.408;2023-06-14T09:13:55;9.35;;;6.18;;
24279;SDS011;12395;42.808;23.408;2023-06-14T09:16:21;8.38;;;5.50;;
24279;SDS011;12395;42.808;23.408;2023-06-14T09:18:47;8.35;;;6.10;;
24279;SDS011;12395;42.808;23.408;2023-06-14T09:21:13;8.53;;;5.93;;
24279;SDS011;12395;42.808;23.408;2023-06-14T09:23:41;7.55;;;5.70;;
24279;SDS011;12395;42.808;23.408;2023-06-14T09:26:11;8.15;;;5.25;;
24279;SDS011;12395;42.808;23.408;2023-06-14T09:28:47;8.50;;;5.63;;
24279;SDS011;12395;42.808;23.408;2023-06-14T09:31:15;7.23;;;5.40;;
24279;SDS011;12395;42.808;23.408;2023-06-14T09:33:42;8.68;;;5.65;;
24279;SDS011;12395;42.808;23.408;2023-06-14T09:36:13;9.85;;;6.53;;
24279;SDS011;12395;42.808;23.408;2023-06-14T09:38:56;9.27;;;6.18;;
24279;SDS011;12395;42.808;23.408;2023-06-14T09:41:30;9.57;;;6.10;;
24279;SDS011;12395;42.808;23.408;2023-06-14T09:44:00;9.35;;;6.53;;
24279;SDS011;12395;42.808;23.408;2023-06-14T09:46:27;10.20;;;6.30;;
24279;SDS011;12395;42.808;23.408;2023-06-14T09:48:54;10.38;;;6.38;;
24279;SDS011;12395;42.808;23.408;2023-06-14T09:51:20;8.70;;;6.00;;
24279;SDS011;12395;42.808;23.408;2023-06-14T09:53:48;9.68;;;6.50;;
24279;SDS011;12395;42.808;23.408;2023-06-14T09:56:27;10.10;;;6.25;;
24279;SDS011;12395;42.808;23.408;2023-06-14T09:58:55;11.90;;;6.50;;
24279;SDS011;12395;42.808;23.408;2023-06-14T10:01:26;9.95;;;6.47;;
24279;SDS011;12395;42.808;23.408;2023-06-14T10:03:55;8.35;;;5.78;;
24279;SDS011;12395;42.808;23.408;2023-06-14T10:06:26;10.15;;;6.32;;
24279;SDS011;12395;42.808;23.408;2023-06-14T10:08:54;7.85;;;5.55;;
24279;SDS011;12395;42.808;23.408;2023-06-14T10:11:28;8.30;;;5.70;;
24279;SDS011;12395;42.808;23.408;2023-06-14T10:13:57;9.48;;;5.90;;
24279;SDS011;12395;42.808;23.408;2023-06-14T10:24:32;8.07;;;5.60;;
24279;SDS011;12395;42.808;23.408;2023-06-14T10:26:59;8.47;;;5.33;;
24279;SDS011;12395;42.808;23.408;2023-06-14T10:29:26;10.27;;;6.13;;
24279;SDS011;12395;42.808;23.408;2023-06-14T10:31:57;7.75;;;5.65;;
24279;SDS011;12395;42.808;23.408;2023-06-14T10:34:30;8.60;;;5.75;;
24279;SDS011;12395;42.808;23.408;2023-06-14T10:37:00;9.52;;;6.22;;
24279;SDS011;12395;42.808;23.408;2023-06-14T10:39:30;10.30;;;6.43;;
24279;SDS011;12395;42.808;23.408;2023-06-14T10:41:56;8.73;;;6.07;;
24279;SDS011;12395;42.808;23.408;2023-06-14T10:46:48;7.97;;;5.88;;
24279;SDS011;12395;42.808;23.408;2023-06-14T10:49:17;8.70;;;5.93;;
24279;SDS011;12395;42.808;23.408;2023-06-14T10:52:02;10.43;;;5.75;;
24279;SDS011;12395;42.808;23.408;2023-06-14T10:54:28;8.15;;;5.65;;
24279;SDS011;12395;42.808;23.408;2023-06-14T10:56:53;10.07;;;5.90;;
24279;SDS011;12395;42.808;23.408;2023-06-14T10:59:20;10.48;;;6.25;;
24279;SDS011;12395;42.808;23.408;2023-06-14T11:01:59;7.97;;;5.60;;
24279;SDS011;12395;42.808;23.408;2023-06-14T11:12:44;8.50;;;5.32;;
24279;SDS011;12395;42.808;23.408;2023-06-14T11:15:13;9.30;;;5.25;;
24279;SDS011;12395;42.808;23.408;2023-06-14T11:17:38;7.43;;;5.18;;
24279;SDS011;12395;42.808;23.408;2023-06-14T11:20:08;6.93;;;5.07;;
24279;SDS011;12395;42.808;23.408;2023-06-14T11:22:43;7.32;;;4.97;;
24279;SDS011;12395;42.808;23.408;2023-06-14T11:25:09;8.10;;;5.25;;
24279;SDS011;12395;42.808;23.408;2023-06-14T11:27:35;8.98;;;5.28;;
24279;SDS011;12395;42.808;23.408;2023-06-14T11:30:07;8.75;;;5.40;;
24279;SDS011;12395;42.808;23.408;2023-06-14T11:32:34;9.35;;;6.15;;
24279;SDS011;12395;42.808;23.408;2023-06-14T11:35:00;9.80;;;5.78;;
24279;SDS011;12395;42.808;23.408;2023-06-14T11:37:26;10.13;;;6.35;;
24279;SDS011;12395;42.808;23.408;2023-06-14T11:39:55;11.15;;;6.60;;
24279;SDS011;12395;42.808;23.408;2023-06-14T11:42:22;8.23;;;5.53;;
24279;SDS011;12395;42.808;23.408;2023-06-14T11:44:49;8.07;;;5.53;;
24279;SDS011;12395;42.808;23.408;2023-06-14T11:47:14;8.47;;;5.80;;
24279;SDS011;12395;42.808;23.408;2023-06-14T11:49:40;7.35;;;5.25;;
24279;SDS011;12395;42.808;23.408;2023-06-14T11:52:06;8.82;;;5.80;;
24279;SDS011;12395;42.808;23.408;2023-06-14T11:54:32;7.35;;;5.28;;
24279;SDS011;12395;42.808;23.408;2023-06-14T11:56:58;7.47;;;4.68;;
24279;SDS011;12395;42.808;23.408;2023-06-14T11:59:24;6.47;;;4.82;;
24279;SDS011;12395;42.808;23.408;2023-06-14T12:01:50;7.43;;;5.07;;
24279;SDS011;12395;42.808;23.408;2023-06-14T12:04:28;7.28;;;4.88;;
24279;SDS011;12395;42.808;23.408;2023-06-14T12:06:54;7.22;;;4.97;;
24279;SDS011;12395;42.808;23.408;2023-06-14T12:09:21;6.72;;;4.78;;
24279;SDS011;12395;42.808;23.408;2023-06-14T12:11:51;7.35;;;5.03;;
24279;SDS011;12395;42.808;23.408;2023-06-14T12:14:29;6.63;;;4.88;;
24279;SDS011;12395;42.808;23.408;2023-06-14T12:17:03;7.78;;;5.38;;
24279;SDS011;12395;42.808;23.408;2023-06-14T12:19:32;5.97;;;4.55;;
24279;SDS011;12395;42.808;23.408;2023-06-14T12:22:01;7.47;;;4.88;;
24279;SDS011;12395;42.808;23.408;2023-06-14T12:24:29;6.60;;;4.78;;
24279;SDS011;12395;42.808;23.408;2023-06-14T12:26:57;6.85;;;4.57;;
24279;SDS011;12395;42.808;23.408;2023-06-14T12:29:24;6.28;;;4.35;;
24279;SDS011;12395;42.808;23.408;2023-06-14T12:31:50;11.00;;;4.82;;
24279;SDS011;12395;42.808;23.408;2023-06-14T12:34:16;7.15;;;4.75;;
24279;SDS011;12395;42.808;23.408;2023-06-14T12:36:41;7.55;;;4.57;;
24279;SDS011;12395;42.808;23.408;2023-06-14T12:39:09;6.30;;;4.82;;
24279;SDS011;12395;42.808;23.408;2023-06-14T12:41:35;5.07;;;4.07;;
24279;SDS011;12395;42.808;23.408;2023-06-14T12:44:01;5.13;;;3.40;;
24279;SDS011;12395;42.808;23.408;2023-06-14T12:46:29;4.68;;;3.75;;
24279;SDS011;12395;42.808;23.408;2023-06-14T12:51:21;8.90;;;3.90;;
24279;SDS011;12395;42.808;23.408;2023-06-14T12:53:49;5.63;;;3.50;;
24279;SDS011;12395;42.808;23.408;2023-06-14T12:56:14;4.30;;;3.50;;
24279;SDS011;12395;42.808;23.408;2023-06-14T12:58:41;5.75;;;3.95;;
24279;SDS011;12395;42.808;23.408;2023-06-14T13:01:06;5.20;;;3.75;;
24279;SDS011;12395;42.808;23.408;2023-06-14T13:03:32;5.20;;;3.55;;
24279;SDS011;12395;42.808;23.408;2023-06-14T13:05:58;4.33;;;3.37;;
24279;SDS011;12395;42.808;23.408;2023-06-14T13:08:24;6.10;;;3.67;;
24279;SDS011;12395;42.808;23.408;2023-06-14T13:10:49;5.50;;;3.80;;
24279;SDS011;12395;42.808;23.408;2023-06-14T13:13:15;5.72;;;3.92;;
24279;SDS011;12395;42.808;23.408;2023-06-14T13:15:40;6.28;;;3.88;;
24279;SDS011;12395;42.808;23.408;2023-06-14T13:18:05;6.85;;;4.13;;
24279;SDS011;12395;42.808;23.408;2023-06-14T13:20:31;5.55;;;4.10;;
24279;SDS011;12395;42.808;23.408;2023-06-14T13:22:57;6.38;;;4.05;;
24279;SDS011;12395;42.808;23.408;2023-06-14T13:25:22;6.07;;;4.20;;
24279;SDS011;12395;42.808;23.408;2023-06-14T13:27:48;5.18;;;3.80;;
24279;SDS011;12395;42.808;23.408;2023-06-14T13:30:13;5.07;;;3.63;;
24279;SDS011;12395;42.808;23.408;2023-06-14T13:32:39;6.35;;;3.97;;
24279;SDS011;12395;42.808;23.408;2023-06-14T13:35:05;5.90;;;4.20;;
24279;SDS011;12395;42.808;23.408;2023-06-14T13:37:31;6.80;;;4.03;;
24279;SDS011;12395;42.808;23.408;2023-06-14T13:39:56;6.15;;;4.00;;
24279;SDS011;12395;42.808;23.408;2023-06-14T13:42:22;5.25;;;3.92;;
24279;SDS011;12395;42.808;23.408;2023-06-14T13:44:47;5.68;;;3.88;;
24279;SDS011;12395;42.808;23.408;2023-06-14T13:47:13;5.72;;;4.05;;
24279;SDS011;12395;42.808;23.408;2023-06-14T13:49:38;6.30;;;4.20;;
24279;SDS011;12395;42.808;23.408;2023-06-14T13:52:04;5.55;;;3.70;;
24279;SDS011;12395;42.808;23.408;2023-06-14T13:54:29;5.57;;;3.80;;
24279;SDS011;12395;42.808;23.408;2023-06-14T13:56:55;6.15;;;3.70;;
24279;SDS011;12395;42.808;23.408;2023-06-14T13:59:20;5.80;;;4.00;;
24279;SDS011;12395;42.808;23.408;2023-06-14T14:01:46;6.38;;;4.20;;
24279;SDS011;12395;42.808;23.408;2023-06-14T14:04:12;5.40;;;4.00;;
24279;SDS011;12395;42.808;23.408;2023-06-14T14:06:38;11.27;;;6.25;;
24279;SDS011;12395;42.808;23.408;2023-06-14T14:09:07;15.32;;;7.30;;
24279;SDS011;12395;42.808;23.408;2023-06-14T14:11:33;22.77;;;7.40;;
24279;SDS011;12395;42.808;23.408;2023-06-14T14:13:58;11.52;;;7.03;;
24279;SDS011;12395;42.808;23.408;2023-06-14T14:16:24;15.65;;;7.50;;
24279;SDS011;12395;42.808;23.408;2023-06-14T14:18:49;16.95;;;7.50;;
24279;SDS011;12395;42.808;23.408;2023-06-14T14:21:14;16.55;;;7.57;;
24279;SDS011;12395;42.808;23.408;2023-06-14T14:23:40;12.80;;;7.10;;
24279;SDS011;12395;42.808;23.408;2023-06-14T14:26:05;10.15;;;6.07;;
24279;SDS011;12395;42.808;23.408;2023-06-14T14:28:31;12.88;;;6.38;;
24279;SDS011;12395;42.808;23.408;2023-06-14T14:30:58;11.13;;;6.20;;
24279;SDS011;12395;42.808;23.408;2023-06-14T14:33:24;11.93;;;6.45;;
24279;SDS011;12395;42.808;23.408;2023-06-14T14:35:49;14.40;;;7.10;;
24279;SDS011;12395;42.808;23.408;2023-06-14T14:38:15;14.88;;;7.35;;
24279;SDS011;12395;42.808;23.408;2023-06-14T14:40:41;12.55;;;7.35;;
24279;SDS011;12395;42.808;23.408;2023-06-14T14:43:07;11.95;;;7.22;;
24279;SDS011;12395;42.808;23.408;2023-06-14T14:45:33;12.07;;;6.72;;
24279;SDS011;12395;42.808;23.408;2023-06-14T14:48:00;12.30;;;6.78;;
24279;SDS011;12395;42.808;23.408;2023-06-14T14:50:27;12.25;;;6.85;;
24279;SDS011;12395;42.808;23.408;2023-06-14T14:52:53;11.57;;;6.50;;
24279;SDS011;12395;42.808;23.408;2023-06-14T14:55:19;11.75;;;7.10;;
24279;SDS011;12395;42.808;23.408;2023-06-14T14:57:45;12.70;;;7.05;;